Pagrindinis puslapis
METAR-TAF:

METAR-TAF

Oro uostai :

Basra, Irakas

platuma: 30-32-56N, ilguma: 47-39-45E, Aukštis: 1 m

Dabartinis oras

Ataskaita buvo paskelbta 51 minutes, ne 02:00 UTC
Vėjas 15 kt iš Vakarų/Pietvakarių
Temperatūra 28°C
Drėgmė 30%
Slėgis 1000 hPa
Matomumas 10 km arba daugiau
nėra debesų žemiau 1500 m ir nėra kamuolinių lietaus debesų

METAR: ORMM 170200Z 25015KT CAVOK 28/09 Q1000 NOSIG

Laikas: 05:51 (02:51 UTC)

Prognozė

Ataskaita buvo paskelbta 4 valandos ir 51 minutes, ne 22:00 UTC
Prognozė galioja nuo 17 metu 00 UTC su 17 metu 24 UTC
Vėjas 18 kt iš Vakarų
Matomumas: 8000 m
Laikinai
nuo 17 metu 06 UTC su 17 metu 16 UTC
Matomumas: 4000 m
Dulkes pustymas

TAF: ORMM 162200Z 1700/1724 26018KT 8000 NSC TEMPO 1706/1716 25G35KT 4000 BLDU

Orai ataskaitas ir orų prognozės (METAR, TAF).

turimą stotys yra geltonos ir raudonos taškus žemėlapyje.

Perkelti pele per norėdami pamatyti stoties vardą.

Tada spustelėkite, norėdami matyti oro stebėjimo ir prognozės.

Norėdami pakeisti žemėlapį: spustelėkite ant žalios mygtukų su juodo kryžiaus žemyn,; žalią mygtuką su brūkšneliu, jei norite nutolinti; arba žalių rodyklių gretimoms žemėlapius.


METAR-TAF: